Grant, Indiana
Current Conditions -  °F | °C
As of 2:15 PM on Friday 21 Nov 2014 (Local Time) from KDCY Reporting Station
Clear Clear  
Wind Chill: 31°   Ceiling: Unl
Heat Index: 37°   Visibility: 10mi
Dew Point: 15°   Wind: 8mph
Humidity: 40%   Direction: 140°SE
Pressure: 30.43"   Gusts: NA
Location:  39.0399°N, 87.0482°W
Report Text: KDCY 211915Z AUTO 14007KT 10SM CLR 03/M09 A3043 RMK AO2 T00281095
Loading
Personal Weather Stations






























Interactive Weather Map New forecast layout! Learn more

10-Day Weather Forecast

Advertisements
Track Severe Weather on mobile